Time;durP1;ratioP1;P1;durP2;ratioP2;P2;SDS_P1;SDS_P2;PMS_P1;PMS_P2;Temp;Humidity;BMP_temperature;BMP_pressure;BME280_temperature;BME280_humidity;BME280_pressure;Samples;Min_cycle;Max_cycle;Signal;HPM_P1;HPM_P2
2023/02/21 02:16:25;;;;;;;10.43;9.63;;;;;;;6.80;71.42;97116.84;5050732;28;20194;-74
2023/02/21 02:19:18;;;;;;;9.90;9.30;;;;;;;6.83;71.20;97129.50;5053445;28;20646;-74
2023/02/21 02:21:58;;;;;;;10.37;9.57;;;;;;;6.82;71.30;97122.66;5052466;28;20182;-75
2023/02/21 02:24:47;;;;;;;8.83;8.30;;;;;;;6.83;71.30;97119.06;5039609;28;20190;-75
2023/02/21 02:27:44;;;;;;;10.17;9.57;;;;;;;6.85;71.35;97116.28;5051565;28;20343;-75
2023/02/21 02:30:43;;;;;;;10.50;9.80;;;;;;;6.82;71.18;97109.63;5052835;28;20201;-75
2023/02/21 02:33:58;;;;;;;11.13;10.43;;;;;;;6.78;71.50;97110.22;5052655;28;20316;-75
2023/02/21 02:36:35;;;;;;;10.50;9.77;;;;;;;6.73;71.81;97103.00;5038726;28;20186;-76
2023/02/21 02:39:13;;;;;;;10.67;9.93;;;;;;;6.77;71.44;97109.41;5052424;28;20170;-75
2023/02/21 02:41:54;;;;;;;11.33;10.70;;;;;;;6.73;71.86;97105.59;5052879;28;20607;-76
2023/02/21 02:44:36;;;;;;;11.47;10.67;;;;;;;6.71;71.78;97104.97;5051839;28;20196;-75
2023/02/21 02:47:06;;;;;;;11.80;11.00;;;;;;;6.67;71.72;97099.38;5052492;28;20209;-75
2023/02/21 02:49:35;;;;;;;12.07;11.27;;;;;;;6.58;72.03;97099.72;5052270;28;20573;-74
2023/02/21 02:52:06;;;;;;;12.27;11.50;;;;;;;6.61;72.36;97094.94;5050351;28;20561;-75
2023/02/21 02:54:32;;;;;;;14.07;13.13;;;;;;;6.49;72.65;97090.47;5036784;28;20244;-74
2023/02/21 02:56:59;;;;;;;14.73;13.80;;;;;;;6.47;73.01;97087.25;5052558;28;20198;-75
2023/02/21 02:59:28;;;;;;;13.87;12.87;;;;;;;6.55;72.79;97090.50;5052045;28;20194;-75
2023/02/21 03:02:03;;;;;;;15.57;14.47;;;;;;;6.54;72.83;97088.06;5052465;28;20197;-75
2023/02/21 03:04:51;;;;;;;15.40;14.60;;;;;;;6.50;73.53;97094.69;5052304;28;20199;-75
2023/02/21 03:07:41;;;;;;;16.00;15.10;;;;;;;6.49;73.37;97088.66;5050439;28;20247;-75
2023/02/21 03:10:33;;;;;;;15.30;14.50;;;;;;;6.47;73.66;97101.06;5053672;28;20186;-74
2023/02/21 03:13:09;;;;;;;17.93;16.63;;;;;;;6.51;73.23;97098.91;5056703;28;20182;-75
2023/02/21 03:15:55;;;;;;;17.60;16.57;;;;;;;6.51;73.17;97096.28;5056352;28;20228;-75
2023/02/21 03:18:27;;;;;;;17.97;17.00;;;;;;;6.58;73.09;97100.50;5056163;28;20221;-74
2023/02/21 03:20:56;;;;;;;18.77;17.73;;;;;;;6.58;72.85;97095.31;5056186;28;20292;-75
2023/02/21 03:23:26;;;;;;;17.80;16.80;;;;;;;6.56;73.08;97088.69;5055558;28;20197;-76
2023/02/21 03:25:53;;;;;;;18.27;17.20;;;;;;;6.55;73.45;97092.28;5056344;28;20292;-75
2023/02/21 03:28:20;;;;;;;16.80;15.87;;;;;;;6.53;73.02;97092.47;5060480;28;20193;-75
2023/02/21 03:30:50;;;;;;;17.30;16.30;;;;;;;6.47;73.25;97087.25;5075875;28;20650;-74
2023/02/21 03:33:15;;;;;;;17.50;16.53;;;;;;;6.41;73.64;97091.41;5068136;28;20217;-75
2023/02/21 03:35:41;;;;;;;19.17;18.07;;;;;;;6.44;73.45;97091.03;5056083;28;20710;-76
2023/02/21 03:38:06;;;;;;;19.07;17.93;;;;;;;6.41;73.77;97090.63;5056082;28;20272;-74
2023/02/21 03:40:33;;;;;;;19.43;18.30;;;;;;;6.43;73.40;97086.03;5055981;28;20190;-75
2023/02/21 03:43:00;;;;;;;19.83;18.80;;;;;;;6.42;73.35;97092.22;5055930;28;20674;-74
2023/02/21 03:45:26;;;;;;;24.57;23.17;;;;;;;6.38;73.55;97084.00;5055600;28;20281;-75
2023/02/21 03:47:51;;;;;;;17.97;16.90;;;;;;;6.40;73.54;97087.22;5055337;28;20268;-76
2023/02/21 03:50:17;;;;;;;17.17;15.90;;;;;;;6.31;73.92;97087.56;5054942;28;20280;-75
2023/02/21 03:52:42;;;;;;;14.80;13.93;;;;;;;6.30;74.15;97085.97;5043254;28;20204;-75
2023/02/21 03:55:08;;;;;;;12.63;11.87;;;;;;;6.22;74.22;97085.13;5055738;28;20662;-76
2023/02/21 03:57:33;;;;;;;12.33;11.60;;;;;;;6.17;74.49;97084.91;5055274;28;20205;-75
2023/02/21 03:59:59;;;;;;;11.90;11.23;;;;;;;6.20;74.75;97083.69;5055221;28;20205;-75
2023/02/21 04:02:25;;;;;;;10.83;10.20;;;;;;;6.26;74.38;97080.31;5055546;28;20189;-75
2023/02/21 04:04:50;;;;;;;11.83;11.17;;;;;;;6.23;74.48;97085.94;5055454;28;20198;-75
2023/02/21 04:07:18;;;;;;;10.47;9.73;;;;;;;6.26;74.43;97088.13;5054090;28;20234;-75
2023/02/21 04:09:44;;;;;;;9.97;9.37;;;;;;;6.23;74.28;97086.75;5055231;28;20714;-75
2023/02/21 04:12:09;;;;;;;10.47;9.87;;;;;;;6.18;74.49;97091.72;5054810;28;20324;-75
2023/02/21 04:14:34;;;;;;;9.17;8.63;;;;;;;6.11;74.89;97090.06;5055296;28;20225;-75
2023/02/21 04:17:00;;;;;;;8.57;7.87;;;;;;;6.12;74.79;97087.28;5055031;28;20202;-75
2023/02/21 04:19:25;;;;;;;7.00;6.50;;;;;;;6.15;74.51;97084.28;5054257;28;20194;-77
2023/02/21 04:21:50;;;;;;;7.67;7.07;;;;;;;6.12;74.84;97078.66;5054560;28;20529;-75
2023/02/21 04:24:16;;;;;;;6.63;6.17;;;;;;;6.10;74.59;97084.03;5055418;28;20197;-76
2023/02/21 04:26:41;;;;;;;6.20;5.73;;;;;;;6.04;75.05;97081.41;5053213;28;20213;-76
2023/02/21 04:29:07;;;;;;;6.13;5.83;;;;;;;6.01;74.95;97081.78;5060820;28;20201;-75
2023/02/21 04:31:32;;;;;;;6.07;5.57;;;;;;;6.01;75.07;97082.59;5055149;28;20217;-74
2023/02/21 04:33:58;;;;;;;5.93;5.57;;;;;;;6.03;74.87;97088.41;5054739;28;20710;-75
2023/02/21 04:36:25;;;;;;;6.00;5.60;;;;;;;6.02;75.03;97091.22;5054525;28;20526;-75
2023/02/21 04:38:51;;;;;;;5.50;5.10;;;;;;;6.00;75.35;97096.59;5054546;28;20194;-76
2023/02/21 04:41:17;;;;;;;4.97;4.67;;;;;;;6.02;75.14;97089.38;5054950;28;20543;-75
2023/02/21 04:43:43;;;;;;;6.23;4.53;;;;;;;5.98;75.13;97090.75;5054562;28;20663;-75
2023/02/21 04:46:10;;;;;;;5.00;4.70;;;;;;;5.99;74.79;97092.38;5054189;28;20218;-75
2023/02/21 04:48:36;;;;;;;4.93;4.53;;;;;;;5.99;74.86;97081.97;5053128;28;20208;-76
2023/02/21 04:51:01;;;;;;;4.60;4.30;;;;;;;5.98;74.98;97085.56;5052471;28;20194;-75
2023/02/21 04:53:26;;;;;;;4.60;4.20;;;;;;;5.98;74.90;97076.94;5052961;28;20193;-75
2023/02/21 04:55:52;;;;;;;4.97;4.53;;;;;;;5.98;75.24;97087.34;5054231;28;20288;-74
2023/02/21 04:58:17;;;;;;;4.90;4.50;;;;;;;5.96;75.54;97084.16;5054214;28;20205;-75
2023/02/21 05:00:43;;;;;;;4.90;4.50;;;;;;;5.96;75.21;97079.75;5052991;28;20182;-74
2023/02/21 05:03:08;;;;;;;4.53;4.20;;;;;;;5.89;75.20;97078.09;5054318;28;20316;-75
2023/02/21 05:05:33;;;;;;;5.13;4.63;;;;;;;5.58;77.38;97088.81;5053335;28;20288;-74
2023/02/21 05:07:58;;;;;;;5.50;5.00;;;;;;;5.54;77.60;97079.78;5054003;28;20273;-74
2023/02/21 05:10:24;;;;;;;6.30;5.10;;;;;;;5.39;79.16;97087.66;5053161;28;20250;-75
2023/02/21 05:12:49;;;;;;;4.90;4.60;;;;;;;5.14;80.93;97079.44;5053422;28;20698;-74
2023/02/21 05:15:15;;;;;;;5.10;4.60;;;;;;;5.04;81.53;97076.34;5053934;28;20200;-74
2023/02/21 05:17:41;;;;;;;5.40;4.90;;;;;;;4.94;82.02;97081.03;5053677;28;20654;-74
2023/02/21 05:20:10;;;;;;;7.37;6.17;;;;;;;4.78;83.44;97076.06;5053491;28;20197;-74
2023/02/21 05:22:38;;;;;;;7.60;7.00;;;;;;;4.83;83.62;97069.34;5054025;28;20332;-74
2023/02/21 05:25:06;;;;;;;7.93;7.33;;;;;;;4.74;84.51;97069.59;5052118;28;20244;-74
2023/02/21 05:27:31;;;;;;;13.23;12.33;;;;;;;4.70;84.93;97070.97;5053620;28;20674;-74
2023/02/21 05:29:57;;;;;;;8.47;7.87;;;;;;;4.64;85.28;97072.50;5053235;28;20194;-74
2023/02/21 05:32:22;;;;;;;9.17;8.37;;;;;;;4.59;85.81;97070.44;5052948;28;20186;-74
2023/02/21 05:34:47;;;;;;;7.93;7.33;;;;;;;4.64;84.88;97071.69;5053264;28;20775;-74
2023/02/21 05:37:14;;;;;;;6.87;6.30;;;;;;;4.72;84.59;97075.00;5053529;28;20190;-75
2023/02/21 05:39:40;;;;;;;7.03;5.70;;;;;;;4.64;84.83;97076.88;5053373;28;20553;-75
2023/02/21 05:42:06;;;;;;;6.20;5.70;;;;;;;4.60;85.21;97076.44;5053547;28;20261;-74
2023/02/21 05:44:32;;;;;;;5.83;5.20;;;;;;;4.64;85.02;97080.28;5052163;28;20189;-74
2023/02/21 05:46:57;;;;;;;6.60;5.20;;;;;;;4.64;85.02;97079.47;5053023;28;20573;-74
2023/02/21 05:49:22;;;;;;;6.43;5.13;;;;;;;4.67;84.95;97076.53;5052861;28;20205;-74
2023/02/21 05:51:48;;;;;;;5.23;4.90;;;;;;;4.85;84.31;97082.91;5051544;28;20224;-76
2023/02/21 05:54:17;;;;;;;5.40;4.90;;;;;;;4.84;84.15;97081.34;5053448;28;20198;-74
2023/02/21 05:56:44;;;;;;;6.60;4.93;;;;;;;4.76;84.24;97081.44;5053242;28;20251;-74
2023/02/21 05:59:10;;;;;;;5.90;5.47;;;;;;;4.78;84.32;97086.44;5053233;28;20281;-74
2023/02/21 06:01:36;;;;;;;5.60;5.20;;;;;;;4.85;83.68;97090.72;5052760;28;20627;-76
2023/02/21 06:04:02;;;;;;;5.30;4.80;;;;;;;4.85;84.09;97085.50;5052243;28;20181;-75
2023/02/21 06:06:27;;;;;;;6.50;5.93;;;;;;;4.85;84.22;97077.72;5052216;28;20209;-75
2023/02/21 06:08:53;;;;;;;6.90;6.33;;;;;;;5.01;83.82;97069.69;5052076;28;20208;-75
2023/02/21 06:11:27;;;;;;;6.03;5.47;;;;;;;5.01;83.43;97072.31;5052345;28;20264;-75
2023/02/21 06:13:54;;;;;;;6.53;6.10;;;;;;;5.14;82.65;97076.03;5052836;28;20244;-75
2023/02/21 06:16:20;;;;;;;7.00;6.50;;;;;;;5.20;82.98;97070.09;5053107;28;20223;-74
2023/02/21 06:18:52;;;;;;;8.43;6.37;;;;;;;5.17;83.11;97076.47;5052716;28;20666;-74
2023/02/21 06:21:18;;;;;;;7.37;6.90;;;;;;;5.25;85.79;97068.53;5051392;28;20657;-75
2023/02/21 06:23:44;;;;;;;7.83;7.03;;;;;;;5.32;85.74;97069.41;5052304;28;20276;-75
2023/02/21 06:26:09;;;;;;;5.67;5.27;;;;;;;5.31;85.05;97061.78;5036224;28;20216;-74
2023/02/21 06:28:35;;;;;;;6.67;6.20;;;;;;;5.36;82.57;97057.66;5053120;28;20213;-74
2023/02/21 06:31:01;;;;;;;7.17;6.57;;;;;;;5.40;81.92;97064.09;5052660;28;20552;-73
2023/02/21 06:33:27;;;;;;;6.43;5.93;;;;;;;5.50;81.57;97063.78;5052539;28;20260;-74
2023/02/21 06:35:52;;;;;;;6.43;5.90;;;;;;;5.61;80.98;97058.06;5052228;28;20177;-74
2023/02/21 06:38:17;;;;;;;6.23;5.83;;;;;;;5.80;80.35;97059.19;5036943;28;20291;-74
2023/02/21 06:40:43;;;;;;;5.77;5.07;;;;;;;5.78;80.35;97063.78;5051562;28;20273;-74
2023/02/21 06:43:09;;;;;;;5.30;4.70;;;;;;;5.86;79.96;97059.22;5052832;28;20194;-74
2023/02/21 06:45:34;;;;;;;5.20;4.80;;;;;;;6.05;79.62;97067.41;5052100;28;20215;-74
2023/02/21 06:47:59;;;;;;;4.93;4.63;;;;;;;6.10;78.74;97073.63;5052336;28;20210;-75
2023/02/21 06:50:25;;;;;;;4.73;4.33;;;;;;;6.14;79.08;97072.25;5048755;28;20277;-74
2023/02/21 06:52:50;;;;;;;4.60;4.20;;;;;;;6.23;78.47;97075.53;5052881;28;20239;-74
2023/02/21 06:55:21;;;;;;;5.00;4.50;;;;;;;6.33;77.83;97075.97;5051787;28;20276;-74
2023/02/21 06:57:46;;;;;;;4.70;4.40;;;;;;;6.31;77.64;97085.75;5052615;28;20198;-74
2023/02/21 07:00:12;;;;;;;5.43;4.33;;;;;;;6.32;78.60;97078.75;5052663;28;20192;-75
2023/02/21 07:02:38;;;;;;;5.83;5.23;;;;;;;6.16;78.06;97087.69;5052114;28;20285;-76
2023/02/21 07:05:04;;;;;;;7.17;6.57;;;;;;;5.97;78.04;97086.53;5051431;28;20193;-76
2023/02/21 07:07:29;;;;;;;6.70;6.10;;;;;;;5.67;80.01;97085.91;5051777;28;20210;-74
2023/02/21 07:09:55;;;;;;;8.13;7.40;;;;;;;5.57;81.09;97087.22;5052178;28;20341;-74
2023/02/21 07:12:20;;;;;;;8.77;8.17;;;;;;;5.96;82.45;97079.75;5051821;28;20269;-73
2023/02/21 07:14:45;;;;;;;7.10;6.40;;;;;;;6.40;83.33;97084.63;5053897;28;20193;-73
2023/02/21 07:17:11;;;;;;;5.47;4.60;;;;;;;6.83;82.35;97081.78;5052339;28;20198;-75
2023/02/21 07:19:36;;;;;;;5.83;5.33;;;;;;;7.05;80.05;97081.47;5052103;28;20194;-74
2023/02/21 07:22:01;;;;;;;6.13;5.17;;;;;;;7.33;77.46;97083.13;5056903;28;20216;-73
2023/02/21 07:24:27;;;;;;;7.43;5.57;;;;;;;7.56;77.17;97083.53;5059385;28;20183;-73
2023/02/21 07:26:52;;;;;;;7.90;6.50;;;;;;;7.70;75.29;97081.72;5050889;28;20618;-73
2023/02/21 07:29:17;;;;;;;6.57;5.80;;;;;;;7.78;74.74;97078.94;5051675;28;20201;-73
2023/02/21 07:31:43;;;;;;;5.33;4.93;;;;;;;7.91;73.07;97077.09;5051802;28;20251;-75
2023/02/21 07:34:08;;;;;;;21.17;19.43;;;;;;;8.09;72.40;97076.47;5050700;28;20642;-76
2023/02/21 07:36:37;;;;;;;20.10;18.70;;;;;;;8.08;71.72;97077.47;5050611;28;20198;-76
2023/02/21 07:39:03;;;;;;;14.93;13.90;;;;;;;8.10;71.75;97072.88;5052268;28;20218;-76
2023/02/21 07:41:28;;;;;;;12.03;11.13;;;;;;;8.16;71.33;97074.66;5052095;28;20222;-77
2023/02/21 07:43:53;;;;;;;15.07;14.07;;;;;;;8.24;70.52;97074.47;5052407;28;20197;-75
2023/02/21 07:46:19;;;;;;;15.13;13.93;;;;;;;8.44;70.37;97071.00;5051216;28;20214;-80
2023/02/21 07:48:44;;;;;;;13.03;12.23;;;;;;;8.57;70.39;97079.63;5038254;28;20190;-75
2023/02/21 07:51:10;;;;;;;10.50;9.60;;;;;;;8.62;69.21;97084.22;5046664;28;20625;-73
2023/02/21 07:53:35;;;;;;;11.13;10.20;;;;;;;8.63;69.22;97085.84;5051786;28;20202;-74
2023/02/21 07:56:02;;;;;;;11.93;10.97;;;;;;;8.64;68.86;97087.41;5052980;28;20186;-74
2023/02/21 07:58:27;;;;;;;11.07;10.37;;;;;;;8.88;68.51;97078.88;5054549;28;20281;-73
2023/02/21 08:00:54;;;;;;;13.77;12.73;;;;;;;8.97;68.31;97076.84;5061157;28;20274;-76
2023/02/21 08:03:20;;;;;;;23.23;21.60;;;;;;;9.06;67.60;97081.59;5055815;28;20277;-75
2023/02/21 08:05:45;;;;;;;25.17;23.37;;;;;;;9.13;67.17;97084.19;5054619;28;20284;-74
2023/02/21 08:08:11;;;;;;;16.67;12.80;;;;;;;8.77;70.43;97077.72;5055132;28;20208;-76
2023/02/21 08:10:36;;;;;;;11.40;10.40;;;;;;;8.73;70.46;97081.75;5054982;28;20206;-75
2023/02/21 08:13:03;;;;;;;11.67;10.43;;;;;;;8.66;71.03;97078.38;5055088;28;20194;-76
2023/02/21 08:15:28;;;;;;;8.70;7.73;;;;;;;8.56;72.11;97085.84;5055307;28;20220;-75
2023/02/21 08:17:54;;;;;;;11.37;9.57;;;;;;;8.47;71.98;97087.06;5055002;28;20655;-75
2023/02/21 08:20:19;;;;;;;11.87;9.83;;;;;;;8.36;71.74;97090.31;5054645;28;20190;-76
2023/02/21 08:22:45;;;;;;;14.33;11.10;;;;;;;8.40;71.73;97090.72;5055139;28;20244;-77
2023/02/21 08:25:11;;;;;;;16.27;14.73;;;;;;;8.32;71.42;97089.13;5055023;28;20194;-77
2023/02/21 08:27:41;;;;;;;18.23;16.73;;;;;;;8.50;72.04;97088.47;5054762;28;20213;-76
2023/02/21 08:30:09;;;;;;;29.77;27.87;;;;;;;8.52;71.05;97091.69;5054603;28;20194;-76
2023/02/21 08:32:35;;;;;;;34.60;32.50;;;;;;;8.85;70.15;97089.75;5055428;28;20190;-76
2023/02/21 08:35:02;;;;;;;35.90;33.70;;;;;;;9.11;69.19;97097.47;5054530;28;20217;-75
2023/02/21 08:37:31;;;;;;;31.37;29.43;;;;;;;9.03;68.68;97094.28;5054779;28;20715;-75
2023/02/21 08:39:58;;;;;;;30.60;28.70;;;;;;;9.26;68.20;97094.56;5054141;28;20190;-76
2023/02/21 08:42:24;;;;;;;34.23;31.83;;;;;;;9.39;67.42;97093.69;5054587;28;20592;-74
2023/02/21 08:44:50;;;;;;;41.83;38.67;;;;;;;9.24;67.92;97101.84;5054387;28;20186;-72
2023/02/21 08:47:17;;;;;;;43.40;40.73;;;;;;;9.12;68.92;97093.03;5054714;28;20214;-75
2023/02/21 08:49:46;;;;;;;47.63;44.63;;;;;;;9.34;68.74;97101.38;5052770;28;20202;-75
2023/02/21 08:52:12;;;;;;;47.13;44.23;;;;;;;9.58;68.46;97098.00;5054851;28;20269;-75
2023/02/21 08:54:39;;;;;;;38.87;36.37;;;;;;;9.52;68.25;97086.56;5054585;28;20225;-76
2023/02/21 08:57:04;;;;;;;42.13;39.70;;;;;;;9.53;67.90;97088.13;5054617;28;20190;-75
2023/02/21 08:59:32;;;;;;;46.13;43.40;;;;;;;9.58;67.78;97093.53;5051011;28;20779;-76
2023/02/21 09:01:58;;;;;;;42.67;40.10;;;;;;;9.66;67.66;97086.44;5053361;28;20205;-75
2023/02/21 09:04:27;;;;;;;45.37;42.67;;;;;;;9.61;67.69;97092.31;5053806;28;20189;-78
2023/02/21 09:06:53;;;;;;;47.63;44.93;;;;;;;9.53;68.17;97095.19;5048130;28;20210;-75
2023/02/21 09:09:19;;;;;;;48.30;45.47;;;;;;;9.62;68.37;97093.94;5052331;28;20321;-75
2023/02/21 09:11:47;;;;;;;45.97;43.30;;;;;;;9.71;67.78;97094.47;5053916;28;20285;-77
2023/02/21 09:14:13;;;;;;;51.30;48.17;;;;;;;9.76;67.70;97090.19;5054087;28;20581;-76
2023/02/21 09:16:38;;;;;;;49.53;46.27;;;;;;;9.70;68.07;97091.03;5052572;28;20243;-76
2023/02/21 09:19:05;;;;;;;47.17;44.13;;;;;;;9.76;67.94;97092.00;5053703;28;20194;-76
2023/02/21 09:21:32;;;;;;;48.67;45.63;;;;;;;9.78;68.29;97093.41;5054033;28;20197;-75
2023/02/21 09:23:58;;;;;;;45.93;43.23;;;;;;;9.90;68.58;97096.13;5054349;28;20532;-76
2023/02/21 09:26:25;;;;;;;11.40;10.30;;;;;;;9.91;70.17;97092.50;5053696;28;20300;-77
2023/02/21 09:28:51;;;;;;;7.10;6.50;;;;;;;10.06;70.82;97086.91;5053492;28;20624;-76
2023/02/21 09:31:17;;;;;;;7.67;6.80;;;;;;;10.02;70.25;97092.59;5053618;28;20228;-76
2023/02/21 09:33:43;;;;;;;7.93;7.17;;;;;;;10.18;69.73;97087.84;5053627;28;20249;-76
2023/02/21 09:36:10;;;;;;;11.13;10.07;;;;;;;10.06;69.78;97079.88;5053846;28;20544;-77
2023/02/21 09:38:35;;;;;;;8.93;7.90;;;;;;;10.21;69.35;97087.41;5054141;28;20231;-77
2023/02/21 09:41:04;;;;;;;18.47;17.27;;;;;;;10.33;68.57;97085.69;5053684;28;20190;-76
2023/02/21 09:43:39;;;;;;;21.00;19.30;;;;;;;10.31;68.90;97087.69;5037024;28;20668;-76
2023/02/21 09:46:19;;;;;;;34.67;32.43;;;;;;;10.52;67.49;97079.44;5051950;28;20693;-76
2023/02/21 09:48:46;;;;;;;37.50;35.33;;;;;;;10.59;67.38;97080.16;5051704;28;20216;-76
2023/02/21 09:51:13;;;;;;;28.97;26.87;;;;;;;10.56;66.48;97080.59;5053208;28;20270;-76
2023/02/21 09:53:41;;;;;;;15.67;14.57;;;;;;;10.64;65.77;97075.06;5053812;28;20255;-75
2023/02/21 09:56:28;;;;;;;12.03;11.23;;;;;;;10.78;64.99;97075.69;5052473;28;20212;-75
2023/02/21 09:58:55;;;;;;;20.80;19.20;;;;;;;10.89;64.13;97077.59;5053220;28;20209;-75
2023/02/21 10:01:50;;;;;;;24.97;23.47;;;;;;;10.93;64.78;97078.72;5053348;28;20193;-75
2023/02/21 10:04:34;;;;;;;12.13;11.07;;;;;;;11.08;66.05;97078.34;5052148;28;20200;-74
2023/02/21 10:07:16;;;;;;;14.10;12.90;;;;;;;11.13;66.19;97078.50;5053022;28;20220;-75
2023/02/21 10:09:55;;;;;;;10.27;9.57;;;;;;;11.22;65.46;97074.53;5053406;28;20186;-75
2023/02/21 10:12:29;;;;;;;12.37;11.20;;;;;;;11.03;65.76;97071.16;5051204;28;20209;-74
2023/02/21 10:15:32;;;;;;;11.43;10.37;;;;;;;10.86;66.64;97067.53;5052760;28;20186;-74
2023/02/21 10:18:04;;;;;;;13.37;9.17;;;;;;;11.06;65.85;97069.91;5052526;28;20181;-75
2023/02/21 10:20:43;;;;;;;12.13;11.10;;;;;;;11.17;66.03;97063.91;5052889;28;20240;-75
2023/02/21 10:23:33;;;;;;;26.70;24.63;;;;;;;11.25;64.87;97061.78;5053455;28;20178;-74
2023/02/21 10:26:06;;;;;;;21.63;20.23;;;;;;;11.40;65.39;97068.41;5052916;28;20642;-75
2023/02/21 10:28:31;;;;;;;26.50;24.60;;;;;;;11.31;64.38;97065.31;5053223;28;20244;-75
2023/02/21 10:31:01;;;;;;;28.27;25.97;;;;;;;11.50;65.35;97058.97;5052980;28;20197;-74
2023/02/21 10:33:27;;;;;;;30.90;28.97;;;;;;;11.62;65.59;97070.28;5052748;28;20222;-75
2023/02/21 10:35:53;;;;;;;29.53;27.37;;;;;;;11.68;64.81;97064.16;5052654;28;20182;-75
2023/02/21 10:38:23;;;;;;;21.03;19.77;;;;;;;11.84;64.11;97062.69;5051470;28;20190;-75
2023/02/21 10:41:02;;;;;;;20.30;18.57;;;;;;;11.88;63.57;97068.28;5052517;28;20558;-75
2023/02/21 10:43:37;;;;;;;15.53;14.43;;;;;;;12.05;63.47;97064.75;5052726;28;20260;-75
2023/02/21 10:46:30;;;;;;;12.67;11.80;;;;;;;12.00;62.96;97066.47;5052451;28;20200;-74
2023/02/21 10:49:18;;;;;;;8.00;7.23;;;;;;;11.84;62.13;97070.59;5050542;28;20258;-75
2023/02/21 10:51:43;;;;;;;7.83;7.07;;;;;;;11.64;62.55;97067.44;5052494;28;20178;-75
2023/02/21 10:54:23;;;;;;;6.90;6.30;;;;;;;11.48;62.90;97055.75;5052553;28;20732;-75
2023/02/21 10:56:51;;;;;;;7.93;6.53;;;;;;;11.52;62.79;97058.75;5051491;28;20552;-75
2023/02/21 10:59:21;;;;;;;8.10;6.40;;;;;;;11.61;63.32;97058.19;5051564;28;20197;-76
2023/02/21 11:01:48;;;;;;;9.60;7.67;;;;;;;11.68;62.73;97050.22;5055000;28;20221;-75
2023/02/21 11:04:19;;;;;;;9.57;8.67;;;;;;;11.40;62.55;97047.41;5051491;28;20264;-75
2023/02/21 11:06:53;;;;;;;9.80;7.63;;;;;;;11.39;62.39;97044.00;5051365;28;20619;-75
2023/02/21 11:09:41;;;;;;;8.77;7.90;;;;;;;11.68;61.85;97037.09;5052415;28;20186;-75
2023/02/21 11:12:23;;;;;;;9.47;7.07;;;;;;;11.61;61.84;97044.25;5051757;28;20190;-75
2023/02/21 11:14:51;;;;;;;8.57;7.60;;;;;;;11.60;61.54;97038.22;5052346;28;20190;-75
2023/02/21 11:17:22;;;;;;;8.17;7.57;;;;;;;11.66;60.83;97039.94;5052178;28;20678;-75
2023/02/21 11:19:55;;;;;;;10.70;7.73;;;;;;;11.92;60.67;97027.44;5053997;28;20268;-75
2023/02/21 11:22:24;;;;;;;12.47;6.17;;;;;;;11.87;60.18;97033.34;5053744;28;20273;-78
2023/02/21 11:25:28;;;;;;;32.57;30.47;;;;;;;11.64;59.57;97030.69;5052745;28;20201;-75
2023/02/21 11:28:05;;;;;;;30.23;28.40;;;;;;;11.87;58.82;97028.09;5008096;28;20284;-76
2023/02/21 11:30:37;;;;;;;48.70;45.83;;;;;;;12.00;58.32;97019.19;5057785;28;20532;-76
2023/02/21 11:33:03;;;;;;;43.17;40.80;;;;;;;11.86;58.67;97012.59;5057353;28;20190;-76
2023/02/21 11:35:38;;;;;;;32.20;30.00;;;;;;;12.08;57.98;97009.16;5056297;28;20178;-77
2023/02/21 11:38:08;;;;;;;56.37;53.23;;;;;;;12.35;58.42;97008.63;5055584;28;20177;-77
2023/02/21 11:40:47;;;;;;;28.07;26.23;;;;;;;12.16;57.97;97007.16;5056243;28;20174;-77
2023/02/21 11:43:32;;;;;;;19.13;17.90;;;;;;;12.04;57.59;97004.56;5056239;28;20216;-75
2023/02/21 11:46:17;;;;;;;21.20;19.63;;;;;;;12.32;58.17;96995.94;5040545;28;20219;-75
2023/02/21 11:48:56;;;;;;;26.07;24.07;;;;;;;12.53;57.08;96989.28;5053827;28;20204;-75
2023/02/21 11:51:56;;;;;;;15.10;13.87;;;;;;;12.67;56.37;96987.97;5053672;28;20659;-76
2023/02/21 11:54:25;;;;;;;14.83;13.30;;;;;;;12.79;55.89;96986.91;5043698;28;20173;-75
2023/02/21 11:57:23;;;;;;;15.23;14.00;;;;;;;12.37;56.50;96982.94;5055802;28;20308;-76
2023/02/21 12:00:07;;;;;;;15.63;13.67;;;;;;;12.46;56.91;96976.25;5045647;28;20194;-76
2023/02/21 12:03:10;;;;;;;16.07;14.80;;;;;;;12.52;56.56;96969.28;5043144;28;20557;-76
2023/02/21 12:05:57;;;;;;;17.97;16.73;;;;;;;12.66;56.30;96965.31;5055262;28;20225;-77
2023/02/21 12:08:50;;;;;;;15.40;14.20;;;;;;;12.93;56.03;96957.69;5055329;28;20178;-77
2023/02/21 12:11:44;;;;;;;28.60;26.87;;;;;;;12.90;55.42;96951.03;5053965;28;20190;-77
2023/02/21 12:14:28;;;;;;;23.27;21.93;;;;;;;12.67;55.26;96943.25;5054075;28;20205;-76
2023/02/21 12:17:21;;;;;;;21.87;20.63;;;;;;;12.82;54.79;96940.88;5055345;28;20537;-76
2023/02/21 12:20:24;;;;;;;12.10;11.13;;;;;;;12.86;54.63;96937.56;5053873;28;20627;-76
2023/02/21 12:23:10;;;;;;;10.23;9.30;;;;;;;12.86;53.86;96932.31;5050142;28;20583;-75
2023/02/21 12:25:43;;;;;;;5.53;5.13;;;;;;;12.94;53.28;96928.47;5054493;28;20567;-77
2023/02/21 12:28:49;;;;;;;5.87;5.37;;;;;;;12.97;53.17;96928.03;5054497;28;20210;-77
2023/02/21 12:31:30;;;;;;;5.87;5.30;;;;;;;13.22;52.74;96917.13;5054777;28;20194;-77
2023/02/21 12:34:15;;;;;;;6.47;5.97;;;;;;;13.01;52.37;96917.81;5055444;28;20222;-76
2023/02/21 12:37:07;;;;;;;5.97;5.60;;;;;;;13.16;52.57;96912.81;5043516;28;20224;-77
2023/02/21 12:40:07;;;;;;;6.80;5.53;;;;;;;13.39;52.41;96907.38;5054481;28;20205;-77
2023/02/21 12:43:11;;;;;;;5.77;5.37;;;;;;;13.53;51.44;96903.38;5052034;28;20186;-77
2023/02/21 12:45:54;;;;;;;5.10;4.70;;;;;;;13.47;51.95;96891.19;5031095;28;20193;-77
2023/02/21 12:48:38;;;;;;;5.17;4.33;;;;;;;13.36;51.79;96888.66;5049975;28;20205;-74
2023/02/21 12:51:12;;;;;;;4.90;3.77;;;;;;;13.60;52.31;96884.75;5052465;28;20202;-75
2023/02/21 12:53:48;;;;;;;5.50;4.07;;;;;;;13.80;50.31;96881.59;5049810;28;20197;-76
2023/02/21 12:56:17;;;;;;;4.10;3.60;;;;;;;13.73;50.21;96874.69;5054109;28;20255;-75
2023/02/21 12:58:53;;;;;;;3.97;3.60;;;;;;;13.94;50.70;96869.66;5054512;28;20202;-75
2023/02/21 13:01:27;;;;;;;4.10;3.87;;;;;;;14.19;50.48;96856.78;5054106;28;20531;-76
2023/02/21 13:04:30;;;;;;;5.03;4.73;;;;;;;14.22;49.39;96858.09;5053091;28;20819;-76
2023/02/21 13:07:24;;;;;;;13.00;12.17;;;;;;;14.23;49.17;96854.44;5053934;28;20292;-77
2023/02/21 13:09:52;;;;;;;14.77;13.83;;;;;;;14.12;49.78;96859.59;5054283;28;20642;-77
2023/02/21 13:12:29;;;;;;;13.30;12.43;;;;;;;14.24;49.61;96848.13;5053471;28;20277;-76
2023/02/21 13:15:01;;;;;;;15.07;13.83;;;;;;;14.39;49.37;96833.28;5054523;28;20185;-79
2023/02/21 13:17:26;;;;;;;29.07;27.27;;;;;;;14.42;48.91;96842.53;5053917;28;20194;-79
2023/02/21 13:20:20;;;;;;;35.63;33.47;;;;;;;14.32;48.65;96827.38;5053872;28;20201;-79
2023/02/21 13:26:30;;;;;;;30.40;28.70;;;;;;;14.55;48.83;96823.66;5051216;28;20305;-79
2023/02/21 13:28:57;;;;;;;33.33;31.47;;;;;;;14.65;48.46;96815.84;5054156;28;20190;-79
2023/02/21 13:31:25;;;;;;;41.20;38.93;;;;;;;14.66;47.73;96814.00;5054359;28;20220;-79
2023/02/21 13:33:55;;;;;;;38.13;36.03;;;;;;;14.47;47.96;96810.94;5052639;28;20258;-79
2023/02/21 13:36:40;;;;;;;38.57;36.47;;;;;;;14.27;48.33;96803.59;5052974;28;20182;-80
2023/02/21 13:39:16;;;;;;;34.57;32.50;;;;;;;14.37;47.98;96802.94;5053701;28;20186;-80
2023/02/21 13:41:43;;;;;;;40.50;38.40;;;;;;;14.36;48.65;96788.94;5052434;28;20194;-81
2023/02/21 13:44:22;;;;;;;38.53;36.43;;;;;;;14.54;48.39;96793.84;5053663;28;20273;-81
2023/02/21 13:46:50;;;;;;;47.30;44.77;;;;;;;14.60;47.85;96786.00;5051632;28;20217;-80
2023/02/21 13:49:47;;;;;;;28.10;26.53;;;;;;;14.62;47.85;96781.25;5053148;28;20201;-80
2023/02/21 13:52:33;;;;;;;23.60;22.27;;;;;;;14.29;48.24;96780.41;5053390;28;20185;-80
2023/02/21 13:55:14;;;;;;;27.43;25.97;;;;;;;14.32;48.77;96774.63;5052192;28;20610;-80
2023/02/21 13:57:45;;;;;;;26.97;25.53;;;;;;;14.33;48.31;96778.06;5053361;28;20193;-79
2023/02/21 14:00:20;;;;;;;26.70;25.30;;;;;;;14.38;48.39;96773.66;5053586;28;20198;-79
2023/02/21 14:03:12;;;;;;;29.07;27.50;;;;;;;14.61;48.38;96762.00;5052371;28;20227;-80
2023/02/21 14:05:44;;;;;;;29.50;28.00;;;;;;;14.73;47.65;96762.63;5043375;28;20529;-81
2023/02/21 14:08:29;;;;;;;23.37;22.10;;;;;;;14.77;47.54;96761.03;5052979;28;20589;-81
2023/02/21 14:10:58;;;;;;;22.07;20.90;;;;;;;14.72;47.31;96757.59;5053277;28;20190;-81